Time;durP1;ratioP1;P1;durP2;ratioP2;P2;SDS_P1;SDS_P2;PMS_P1;PMS_P2;Temp;Humidity;BMP_temperature;BMP_pressure;BME280_temperature;BME280_humidity;BME280_pressure;Samples;Min_cycle;Max_cycle;Signal;HPM_P1;HPM_P2
2023/02/10 00:01:08;;;;;;;31.73;13.23;;;1.30;99.90;;;;;;5040573;28;20471;-70
2023/02/10 00:03:34;;;;;;;23.13;13.47;;;1.30;99.90;;;;;;5043942;28;20593;-69
2023/02/10 00:06:00;;;;;;;24.30;12.50;;;1.20;99.90;;;;;;5026991;28;20472;-69
2023/02/10 00:08:26;;;;;;;25.17;13.20;;;1.20;99.90;;;;;;5039986;28;20448;-69
2023/02/10 00:10:59;;;;;;;22.83;11.60;;;1.10;99.90;;;;;;5025941;28;20465;-67
2023/02/10 00:13:26;;;;;;;24.70;13.00;;;1.10;99.90;;;;;;5039989;28;20449;-69
2023/02/10 00:15:52;;;;;;;20.30;11.57;;;1.10;99.90;;;;;;5043037;28;20457;-69
2023/02/10 00:18:18;;;;;;;20.87;12.30;;;1.10;99.90;;;;;;5036313;28;20520;-69
2023/02/10 00:20:44;;;;;;;19.60;10.87;;;1.10;99.90;;;;;;5022428;28;20309;-69
2023/02/10 00:23:09;;;;;;;24.40;11.53;;;1.10;99.90;;;;;;5039885;28;20261;-68
2023/02/10 00:25:35;;;;;;;19.37;11.27;;;1.10;99.90;;;;;;5043703;28;20302;-70
2023/02/10 00:28:02;;;;;;;21.40;10.10;;;1.20;99.90;;;;;;5023330;28;20209;-68
2023/02/10 00:30:27;;;;;;;18.80;11.00;;;1.10;99.90;;;;;;5023767;28;21327;-69
2023/02/10 00:32:53;;;;;;;23.67;11.90;;;1.20;99.90;;;;;;5043805;28;20534;-69
2023/02/10 00:35:19;;;;;;;17.43;10.03;;;1.10;99.90;;;;;;5029712;28;20666;-67
2023/02/10 00:37:44;;;;;;;20.97;12.00;;;1.10;99.90;;;;;;5030045;28;20255;-68
2023/02/10 00:40:10;;;;;;;22.13;11.70;;;1.10;99.90;;;;;;5041533;28;20214;-69
2023/02/10 00:42:36;;;;;;;21.87;12.07;;;1.10;99.90;;;;;;5041943;28;20220;-68
2023/02/10 00:45:03;;;;;;;24.73;11.40;;;1.10;99.90;;;;;;5042329;28;20228;-70
2023/02/10 00:47:29;;;;;;;21.83;11.93;;;1.00;99.90;;;;;;5037375;28;20857;-69
2023/02/10 00:49:54;;;;;;;19.43;10.77;;;1.00;99.90;;;;;;5038086;28;20456;-68
2023/02/10 00:52:22;;;;;;;20.50;11.53;;;1.00;99.90;;;;;;5038432;28;20712;-69
2023/02/10 00:54:48;;;;;;;16.70;9.60;;;1.00;99.90;;;;;;5041910;28;20527;-70
2023/02/10 00:57:14;;;;;;;26.03;12.13;;;0.90;99.90;;;;;;5022689;28;20957;-69
2023/02/10 00:59:39;;;;;;;21.80;11.00;;;0.90;99.90;;;;;;5024482;28;20245;-68
2023/02/10 01:02:05;;;;;;;23.47;11.27;;;0.90;99.90;;;;;;5038603;28;20559;-70
2023/02/10 01:04:31;;;;;;;23.60;10.57;;;0.90;99.90;;;;;;5042482;28;20228;-69
2023/02/10 01:06:56;;;;;;;16.57;9.87;;;0.80;99.90;;;;;;5042221;28;20309;-68
2023/02/10 01:09:22;;;;;;;16.43;9.80;;;0.80;99.90;;;;;;5038773;28;20230;-69
2023/02/10 01:11:48;;;;;;;20.10;9.77;;;0.80;99.90;;;;;;5023593;28;20232;-69
2023/02/10 01:14:14;;;;;;;28.07;11.50;;;0.80;99.90;;;;;;5023611;28;20230;-69
2023/02/10 01:16:40;;;;;;;19.47;10.20;;;0.70;99.90;;;;;;5042209;28;20232;-69
2023/02/10 01:19:08;;;;;;;16.40;9.20;;;0.70;99.90;;;;;;5040188;28;20462;-69
2023/02/10 01:21:36;;;;;;;22.83;11.53;;;0.70;99.90;;;;;;5040930;28;20470;-69
2023/02/10 01:24:03;;;;;;;22.23;11.23;;;0.70;99.90;;;;;;5025969;28;20543;-69
2023/02/10 01:26:30;;;;;;;18.77;10.27;;;0.70;99.90;;;;;;5026238;28;20481;-69
2023/02/10 01:28:57;;;;;;;14.87;8.20;;;0.70;99.90;;;;;;5022005;28;20481;-69
2023/02/10 01:31:25;;;;;;;26.23;9.37;;;0.60;99.90;;;;;;5031376;28;20476;-69
2023/02/10 01:33:52;;;;;;;14.43;8.77;;;0.60;99.90;;;;;;5041063;28;20250;-69
2023/02/10 01:36:20;;;;;;;22.10;10.80;;;0.60;99.90;;;;;;5036856;28;20471;-69
2023/02/10 01:38:46;;;;;;;22.50;9.43;;;0.60;99.90;;;;;;5036447;28;20555;-69
2023/02/10 01:41:15;;;;;;;19.80;10.00;;;0.60;99.90;;;;;;5046097;28;20596;-69
2023/02/10 01:44:03;;;;;;;17.93;9.20;;;0.50;99.90;;;;;;5025104;28;20229;-69
2023/02/10 01:46:32;;;;;;;23.20;10.30;;;0.50;99.90;;;;;;5020741;28;20514;-69
2023/02/10 01:49:01;;;;;;;18.10;9.37;;;0.20;99.90;;;;;;5037550;28;20466;-69
2023/02/10 01:51:48;;;;;;;23.47;9.87;;;0.00;99.90;;;;;;5038399;28;20459;-67
2023/02/10 01:54:18;;;;;;;19.80;9.60;;;-0.10;99.90;;;;;;5038770;28;20531;-70
2023/02/10 01:56:45;;;;;;;18.60;8.27;;;-0.20;99.90;;;;;;5045723;28;20456;-69
2023/02/10 01:59:13;;;;;;;14.40;8.50;;;0.00;99.90;;;;;;5041911;28;20487;-70
2023/02/10 02:01:39;;;;;;;21.73;9.77;;;0.20;99.90;;;;;;5043797;28;20556;-68
2023/02/10 02:04:04;;;;;;;13.53;8.70;;;0.30;99.90;;;;;;5024574;28;20516;-69
2023/02/10 02:06:32;;;;;;;17.27;8.30;;;0.40;99.90;;;;;;5028783;28;20232;-69
2023/02/10 02:08:58;;;;;;;18.00;8.90;;;0.40;99.90;;;;;;5024732;28;20220;-68
2023/02/10 02:12:00;;;;;;;22.93;9.33;;;0.40;99.90;;;;;;5041061;28;20457;-69
2023/02/10 02:14:55;;;;;;;20.80;8.80;;;0.50;99.90;;;;;;5003237;28;20275;-70
2023/02/10 02:17:47;;;;;;;15.43;8.20;;;0.50;99.90;;;;;;4964797;28;20469;-67
2023/02/10 02:20:57;;;;;;;22.27;10.77;;;0.50;99.90;;;;;;5022086;28;20448;-69
2023/02/10 02:23:53;;;;;;;15.30;8.70;;;0.50;99.90;;;;;;5012157;28;22243;-69
2023/02/10 02:26:56;;;;;;;19.57;9.50;;;0.50;99.90;;;;;;5023157;28;20464;-68
2023/02/10 02:29:21;;;;;;;26.30;8.63;;;0.50;99.90;;;;;;5014501;28;20486;-69
2023/02/10 02:31:53;;;;;;;15.40;9.43;;;0.40;99.90;;;;;;5033013;28;20834;-69
2023/02/10 02:34:37;;;;;;;20.30;10.30;;;0.50;99.90;;;;;;5041008;28;20269;-69
2023/02/10 02:37:15;;;;;;;15.70;7.83;;;0.50;99.90;;;;;;5042618;28;20456;-69
2023/02/10 02:39:43;;;;;;;18.67;9.67;;;0.50;99.90;;;;;;5045648;28;20538;-69
2023/02/10 02:42:15;;;;;;;18.70;10.00;;;0.50;99.90;;;;;;5018469;28;20494;-68
2023/02/10 02:44:43;;;;;;;16.43;8.80;;;0.50;99.90;;;;;;5025303;28;20471;-68
2023/02/10 02:47:19;;;;;;;17.93;8.00;;;0.50;99.90;;;;;;5023993;28;20465;-68
2023/02/10 02:49:54;;;;;;;17.70;9.20;;;0.40;99.90;;;;;;5027919;28;20468;-70
2023/02/10 02:52:38;;;;;;;19.07;9.90;;;0.40;99.90;;;;;;5041521;28;20615;-69
2023/02/10 02:55:12;;;;;;;19.23;9.93;;;0.40;99.90;;;;;;5025577;28;20464;-68
2023/02/10 02:57:50;;;;;;;19.03;9.77;;;0.40;99.90;;;;;;5028247;28;20461;-68
2023/02/10 03:00:29;;;;;;;15.80;9.37;;;0.40;99.90;;;;;;5024267;28;20477;-70
2023/02/10 03:02:56;;;;;;;15.50;8.47;;;0.50;99.90;;;;;;5027241;28;20471;-69
2023/02/10 03:05:27;;;;;;;18.97;9.50;;;0.50;99.90;;;;;;5043524;28;20486;-69
2023/02/10 03:07:53;;;;;;;16.00;8.67;;;0.50;99.90;;;;;;5036613;28;20468;-69
2023/02/10 03:10:18;;;;;;;18.47;8.27;;;0.50;99.90;;;;;;5035969;28;20456;-69
2023/02/10 03:12:44;;;;;;;20.07;9.30;;;0.50;99.90;;;;;;5041133;28;20229;-69
2023/02/10 03:15:11;;;;;;;18.03;10.37;;;0.50;99.90;;;;;;5036003;28;20639;-69
2023/02/10 03:17:36;;;;;;;23.47;11.80;;;0.50;99.90;;;;;;5018402;28;20232;-68
2023/02/10 03:20:02;;;;;;;14.97;8.57;;;0.50;99.90;;;;;;5028009;28;20457;-69
2023/02/10 03:22:28;;;;;;;18.50;10.47;;;0.50;99.90;;;;;;5025905;28;20260;-69
2023/02/10 03:24:54;;;;;;;21.67;10.17;;;0.50;99.90;;;;;;5026687;28;20317;-69
2023/02/10 03:27:19;;;;;;;14.03;8.90;;;0.50;99.90;;;;;;5024052;28;20226;-69
2023/02/10 03:29:45;;;;;;;18.83;9.30;;;0.50;99.90;;;;;;5050094;28;20222;-69
2023/02/10 03:32:11;;;;;;;12.43;8.13;;;0.50;99.90;;;;;;5045205;28;20224;-69
2023/02/10 03:34:37;;;;;;;22.53;9.93;;;0.50;99.90;;;;;;5044870;28;20550;-68
2023/02/10 03:37:02;;;;;;;21.23;9.57;;;0.50;99.90;;;;;;5044320;28;20236;-68
2023/02/10 03:39:28;;;;;;;16.47;9.87;;;0.50;99.90;;;;;;5044535;28;20229;-69
2023/02/10 03:41:54;;;;;;;17.83;9.50;;;0.50;99.90;;;;;;5045081;28;20233;-69
2023/02/10 03:44:20;;;;;;;15.30;9.33;;;0.50;99.90;;;;;;5040499;28;20214;-68
2023/02/10 03:46:45;;;;;;;18.20;10.60;;;0.50;99.90;;;;;;5045862;28;20460;-69
2023/02/10 03:49:11;;;;;;;15.63;9.00;;;0.50;99.90;;;;;;5040344;28;20601;-68
2023/02/10 03:51:37;;;;;;;21.13;10.37;;;0.50;99.90;;;;;;5044158;28;20217;-69
2023/02/10 03:54:02;;;;;;;21.43;10.23;;;0.50;99.90;;;;;;5027245;28;20220;-69
2023/02/10 03:56:28;;;;;;;18.70;10.30;;;0.50;99.90;;;;;;5027344;28;20230;-70
2023/02/10 03:58:54;;;;;;;19.57;9.50;;;0.50;99.90;;;;;;5027041;28;20229;-69
2023/02/10 04:01:19;;;;;;;13.87;8.70;;;0.50;99.90;;;;;;5038210;28;20309;-69
2023/02/10 04:03:45;;;;;;;18.40;9.77;;;0.60;99.90;;;;;;5043526;28;20228;-69
2023/02/10 04:06:11;;;;;;;20.97;10.47;;;0.60;99.90;;;;;;5040404;28;20213;-69
2023/02/10 04:08:38;;;;;;;23.17;10.90;;;0.60;99.90;;;;;;5040856;28;20213;-69
2023/02/10 04:11:04;;;;;;;22.33;10.30;;;0.50;99.90;;;;;;5020614;28;20496;-69
2023/02/10 04:13:30;;;;;;;20.20;10.43;;;0.60;99.90;;;;;;5032537;28;20467;-69
2023/02/10 04:16:06;;;;;;;20.13;10.77;;;0.60;99.90;;;;;;5043490;28;20460;-69
2023/02/10 04:18:33;;;;;;;19.37;11.23;;;0.60;99.90;;;;;;5049953;28;20224;-68
2023/02/10 04:21:00;;;;;;;24.00;11.43;;;0.60;99.90;;;;;;5048758;28;20897;-68
2023/02/10 04:23:26;;;;;;;23.60;11.70;;;0.60;99.90;;;;;;5048607;28;20437;-69
2023/02/10 04:25:52;;;;;;;19.37;11.60;;;0.60;99.90;;;;;;5058589;28;20559;-69
2023/02/10 04:28:18;;;;;;;20.30;10.47;;;0.60;99.90;;;;;;5049753;28;20616;-69
2023/02/10 04:30:44;;;;;;;22.23;10.13;;;0.60;99.90;;;;;;5047601;28;20256;-69
2023/02/10 04:33:09;;;;;;;22.70;10.60;;;0.60;99.90;;;;;;5032191;28;20489;-68
2023/02/10 04:35:35;;;;;;;22.33;11.83;;;0.70;99.90;;;;;;5033209;28;20275;-70
2023/02/10 04:38:03;;;;;;;22.17;10.37;;;0.70;99.90;;;;;;5047951;28;20279;-68
2023/02/10 04:40:30;;;;;;;18.27;10.20;;;0.70;99.90;;;;;;5029008;28;20253;-68
2023/02/10 04:42:55;;;;;;;16.53;10.30;;;0.70;99.90;;;;;;5029593;28;20484;-69
2023/02/10 04:45:21;;;;;;;19.93;10.33;;;0.70;99.90;;;;;;5046553;28;20468;-68
2023/02/10 04:47:47;;;;;;;20.37;10.50;;;0.70;99.90;;;;;;5048343;28;20222;-69
2023/02/10 04:50:12;;;;;;;17.70;8.20;;;0.60;99.90;;;;;;5028052;28;20236;-69
2023/02/10 04:52:38;;;;;;;18.13;9.33;;;0.60;99.90;;;;;;5035460;28;20581;-69
2023/02/10 04:55:04;;;;;;;14.13;9.10;;;0.50;99.90;;;;;;5049646;28;20300;-69
2023/02/10 04:57:30;;;;;;;25.53;9.43;;;0.40;99.90;;;;;;5049224;28;20636;-69
2023/02/10 04:59:55;;;;;;;19.50;9.40;;;0.30;99.90;;;;;;5045371;28;20254;-70
2023/02/10 05:02:21;;;;;;;16.50;9.10;;;0.30;99.90;;;;;;5022172;28;20270;-69
2023/02/10 05:04:47;;;;;;;17.57;10.47;;;0.50;99.90;;;;;;5026608;28;20256;-69
2023/02/10 05:07:12;;;;;;;22.63;11.70;;;0.60;99.90;;;;;;5025059;28;20720;-68
2023/02/10 05:09:38;;;;;;;29.07;11.67;;;0.70;99.90;;;;;;5041974;28;20229;-68
2023/02/10 05:12:03;;;;;;;24.30;14.23;;;0.80;99.90;;;;;;5031157;28;20674;-69
2023/02/10 05:14:29;;;;;;;24.37;13.60;;;0.70;99.90;;;;;;5040778;28;20682;-69
2023/02/10 05:16:55;;;;;;;22.80;13.60;;;0.70;99.90;;;;;;5042852;28;20257;-68
2023/02/10 05:19:21;;;;;;;25.20;11.30;;;0.70;99.90;;;;;;5019353;28;20244;-69
2023/02/10 05:21:46;;;;;;;21.47;12.37;;;0.70;99.90;;;;;;5040259;28;20264;-69
2023/02/10 05:24:12;;;;;;;24.00;11.67;;;0.70;99.90;;;;;;5038639;28;20218;-69
2023/02/10 05:26:37;;;;;;;25.53;13.43;;;0.80;99.90;;;;;;5043930;28;20313;-70
2023/02/10 05:29:03;;;;;;;18.17;11.30;;;0.80;99.90;;;;;;5026121;28;20234;-69
2023/02/10 05:31:29;;;;;;;21.37;12.27;;;0.80;99.90;;;;;;5034363;28;20226;-68
2023/02/10 05:33:54;;;;;;;19.77;11.70;;;0.80;99.90;;;;;;5041587;28;20221;-70
2023/02/10 05:36:21;;;;;;;19.50;11.17;;;0.80;99.90;;;;;;5021707;28;20230;-69
2023/02/10 05:41:31;;;;;;;20.17;10.50;;;0.80;99.90;;;;;;5029844;28;20557;-68
2023/02/10 05:43:57;;;;;;;23.70;10.93;;;0.80;99.90;;;;;;5038085;28;20972;-69
2023/02/10 05:46:23;;;;;;;19.03;10.63;;;0.90;99.90;;;;;;5033243;28;20997;-69
2023/02/10 05:48:49;;;;;;;19.73;10.70;;;0.90;99.90;;;;;;5029800;28;20469;-68
2023/02/10 05:51:14;;;;;;;18.73;11.57;;;0.90;99.90;;;;;;5021802;28;20213;-69
2023/02/10 05:53:40;;;;;;;23.60;11.37;;;0.90;99.90;;;;;;5025173;28;20289;-68
2023/02/10 05:56:06;;;;;;;22.83;12.13;;;0.90;99.90;;;;;;5022185;28;20467;-70
2023/02/10 05:58:34;;;;;;;24.43;12.20;;;0.90;99.90;;;;;;5024054;28;20328;-69
2023/02/10 06:01:00;;;;;;;19.07;10.83;;;0.90;99.90;;;;;;5024286;28;20456;-68
2023/02/10 06:03:26;;;;;;;19.50;10.70;;;1.00;99.90;;;;;;5032283;28;20483;-69
2023/02/10 06:05:52;;;;;;;20.63;10.70;;;1.00;99.90;;;;;;5022642;28;20239;-69
2023/02/10 06:08:17;;;;;;;24.03;11.77;;;1.00;99.90;;;;;;5029330;28;20225;-70
2023/02/10 06:10:43;;;;;;;21.40;11.80;;;0.90;99.90;;;;;;5030995;28;20972;-69
2023/02/10 06:13:09;;;;;;;22.70;10.63;;;1.00;99.90;;;;;;5044846;28;20225;-70
2023/02/10 06:15:34;;;;;;;20.20;10.30;;;1.00;99.90;;;;;;5039120;28;20225;-69
2023/02/10 06:18:00;;;;;;;24.50;11.10;;;1.00;99.90;;;;;;5047296;28;20252;-68
2023/02/10 06:20:26;;;;;;;17.17;10.17;;;1.00;99.90;;;;;;5047091;28;20219;-69
2023/02/10 06:22:52;;;;;;;16.03;9.80;;;1.00;99.90;;;;;;5031040;28;20245;-69
2023/02/10 06:25:17;;;;;;;19.37;8.90;;;1.00;99.90;;;;;;5043832;28;20253;-70
2023/02/10 06:27:43;;;;;;;20.27;10.70;;;1.10;99.90;;;;;;5035912;28;20473;-67
2023/02/10 06:30:09;;;;;;;18.97;9.43;;;1.00;99.90;;;;;;5028301;28;20673;-69
2023/02/10 06:32:35;;;;;;;18.67;9.67;;;1.00;99.90;;;;;;5047229;28;20220;-70
2023/02/10 06:35:01;;;;;;;18.07;10.27;;;1.10;99.90;;;;;;5026029;28;20464;-69
2023/02/10 06:37:26;;;;;;;16.10;8.80;;;1.10;99.90;;;;;;5031904;28;20272;-70
2023/02/10 06:39:52;;;;;;;25.17;10.10;;;1.10;99.90;;;;;;5038059;28;20231;-70
2023/02/10 06:42:17;;;;;;;16.17;8.60;;;1.10;99.90;;;;;;5041390;28;20620;-70
2023/02/10 06:44:43;;;;;;;21.07;10.67;;;1.20;99.90;;;;;;5048213;28;20312;-69
2023/02/10 06:47:09;;;;;;;18.93;10.00;;;1.20;99.90;;;;;;5049913;28;20312;-68
2023/02/10 06:49:35;;;;;;;20.80;10.83;;;1.20;99.90;;;;;;5050566;28;20218;-70
2023/02/10 06:52:00;;;;;;;17.20;9.23;;;1.20;99.90;;;;;;5037497;28;20230;-69
2023/02/10 06:54:26;;;;;;;21.17;11.53;;;1.10;99.90;;;;;;5048533;28;20276;-70
2023/02/10 06:56:52;;;;;;;21.10;10.33;;;1.10;99.90;;;;;;5049469;28;20233;-70
2023/02/10 06:59:17;;;;;;;19.10;10.60;;;1.10;99.90;;;;;;5046208;28;20230;-69
2023/02/10 07:01:43;;;;;;;21.63;12.67;;;1.10;99.90;;;;;;5043265;28;20229;-71
2023/02/10 07:04:09;;;;;;;19.47;10.83;;;1.10;99.90;;;;;;5030536;28;20227;-68
2023/02/10 07:06:34;;;;;;;25.27;13.87;;;1.20;99.90;;;;;;5033654;28;20299;-69
2023/02/10 07:09:01;;;;;;;22.47;10.80;;;1.20;99.90;;;;;;5050628;28;20212;-69
2023/02/10 07:11:26;;;;;;;21.20;12.30;;;1.20;99.90;;;;;;5033716;28;20316;-70
2023/02/10 07:13:52;;;;;;;21.40;11.40;;;1.10;99.90;;;;;;5049797;28;20956;-70
2023/02/10 07:16:17;;;;;;;18.63;10.60;;;1.10;99.90;;;;;;5048270;28;20744;-70
2023/02/10 07:18:43;;;;;;;21.30;12.33;;;1.10;99.90;;;;;;5031300;28;20225;-69
2023/02/10 07:21:09;;;;;;;25.63;13.07;;;1.10;99.90;;;;;;5046289;28;20321;-69
2023/02/10 07:23:34;;;;;;;20.43;11.10;;;1.20;99.90;;;;;;5038563;28;20233;-70
2023/02/10 07:26:00;;;;;;;21.43;11.30;;;1.20;99.90;;;;;;5049388;28;20308;-70
2023/02/10 07:28:26;;;;;;;21.00;11.57;;;1.10;99.90;;;;;;5048088;28;20219;-69
2023/02/10 07:30:52;;;;;;;23.50;11.13;;;1.00;99.90;;;;;;5033211;28;20233;-70
2023/02/10 07:33:18;;;;;;;20.53;10.20;;;1.10;99.90;;;;;;5038030;28;20603;-69
2023/02/10 07:35:43;;;;;;;26.77;12.60;;;1.20;99.90;;;;;;5049606;28;20453;-69
2023/02/10 07:38:09;;;;;;;25.00;11.63;;;1.20;99.90;;;;;;5024049;28;20218;-70
2023/02/10 07:40:34;;;;;;;23.33;11.07;;;1.20;99.90;;;;;;5044577;28;20229;-69
2023/02/10 07:43:00;;;;;;;16.20;8.97;;;1.20;99.90;;;;;;5041048;28;20313;-69
2023/02/10 07:45:38;;;;;;;19.60;11.53;;;1.20;99.90;;;;;;5045517;28;20221;-69
2023/02/10 07:48:04;;;;;;;20.20;10.80;;;1.20;99.90;;;;;;5032331;28;20463;-70
2023/02/10 07:50:30;;;;;;;23.83;12.53;;;1.20;99.90;;;;;;5049695;28;20317;-68
2023/02/10 07:52:55;;;;;;;20.20;11.77;;;1.20;99.90;;;;;;5020403;28;20222;-70
2023/02/10 07:55:21;;;;;;;26.30;11.87;;;1.20;99.90;;;;;;5048102;28;20312;-68
2023/02/10 07:57:46;;;;;;;25.83;15.17;;;1.30;99.90;;;;;;5041779;28;20296;-70
2023/02/10 08:00:13;;;;;;;29.40;15.60;;;1.30;99.90;;;;;;5041014;28;20213;-69
2023/02/10 08:02:39;;;;;;;23.23;14.13;;;1.30;99.90;;;;;;5033255;28;20229;-69
2023/02/10 08:05:05;;;;;;;23.23;12.67;;;1.30;99.90;;;;;;5014178;28;20460;-70
2023/02/10 08:07:30;;;;;;;23.30;12.50;;;1.30;99.90;;;;;;5031095;28;20284;-69
2023/02/10 08:09:56;;;;;;;29.33;12.63;;;1.30;99.90;;;;;;5042300;28;20471;-69
2023/02/10 08:12:22;;;;;;;26.20;13.07;;;1.20;99.90;;;;;;5049949;28;20223;-69
2023/02/10 08:14:48;;;;;;;19.67;12.63;;;1.10;99.90;;;;;;5027535;28;20309;-69
2023/02/10 08:17:14;;;;;;;20.23;11.30;;;1.10;99.90;;;;;;5043257;28;20532;-69
2023/02/10 08:19:39;;;;;;;29.10;12.67;;;1.20;99.90;;;;;;5040332;28;20218;-69
2023/02/10 08:22:05;;;;;;;20.37;10.60;;;1.30;99.90;;;;;;5044812;28;20250;-69
2023/02/10 08:24:31;;;;;;;21.43;10.90;;;1.30;99.90;;;;;;5044091;28;20214;-69
2023/02/10 08:26:57;;;;;;;15.40;9.53;;;1.40;99.90;;;;;;5046800;28;20225;-69
2023/02/10 08:29:23;;;;;;;22.87;10.30;;;1.40;99.90;;;;;;5050219;28;20448;-69
2023/02/10 08:31:50;;;;;;;18.47;10.03;;;1.40;99.90;;;;;;5044013;28;20231;-69
2023/02/10 08:34:18;;;;;;;22.53;11.73;;;1.50;99.90;;;;;;5045797;28;20461;-69
2023/02/10 08:36:44;;;;;;;21.67;12.63;;;1.50;99.90;;;;;;5028998;28;20468;-69
2023/02/10 08:39:12;;;;;;;28.43;13.80;;;1.50;99.90;;;;;;5048661;28;20461;-69
2023/02/10 08:41:38;;;;;;;28.67;13.50;;;1.50;99.90;;;;;;5030182;28;20878;-69
2023/02/10 08:44:04;;;;;;;23.93;12.47;;;1.50;99.90;;;;;;5043501;28;20456;-69
2023/02/10 08:46:30;;;;;;;23.80;12.00;;;1.50;99.90;;;;;;5045767;28;20460;-70
2023/02/10 08:48:56;;;;;;;22.33;12.30;;;1.50;99.90;;;;;;5047543;28;20455;-70
2023/02/10 08:51:21;;;;;;;27.80;13.33;;;1.50;99.90;;;;;;5047571;28;20464;-70
2023/02/10 08:53:47;;;;;;;23.97;12.67;;;1.60;99.90;;;;;;5048099;28;20292;-70
2023/02/10 08:56:17;;;;;;;24.27;13.50;;;1.60;99.90;;;;;;5048094;28;20217;-70
2023/02/10 08:58:45;;;;;;;33.93;15.00;;;1.60;99.90;;;;;;5044616;28;20714;-69
2023/02/10 09:01:13;;;;;;;27.70;13.93;;;1.50;99.90;;;;;;5046126;28;20471;-69
2023/02/10 09:03:40;;;;;;;26.60;13.60;;;1.60;99.90;;;;;;5048030;28;20448;-70
2023/02/10 09:06:16;;;;;;;26.03;13.70;;;1.60;99.90;;;;;;5026640;28;20465;-70
2023/02/10 09:08:43;;;;;;;19.10;11.53;;;1.70;99.90;;;;;;5051880;28;20452;-70
2023/02/10 09:11:09;;;;;;;20.10;11.60;;;1.70;99.90;;;;;;5030340;28;20587;-69
2023/02/10 09:13:35;;;;;;;23.10;12.00;;;1.70;99.90;;;;;;5054006;28;20522;-68
2023/02/10 09:16:01;;;;;;;23.50;12.87;;;1.70;99.90;;;;;;5033918;28;20221;-69
2023/02/10 09:18:26;;;;;;;21.67;11.33;;;1.70;99.90;;;;;;5047071;28;20445;-68
2023/02/10 09:20:52;;;;;;;26.50;11.87;;;1.80;99.90;;;;;;5025932;28;20225;-70
2023/02/10 09:23:18;;;;;;;20.87;11.77;;;1.80;99.90;;;;;;5029032;28;20305;-70
2023/02/10 09:25:51;;;;;;;27.60;12.67;;;1.80;99.90;;;;;;5029406;28;20226;-70
2023/02/10 09:28:17;;;;;;;28.47;12.97;;;1.80;99.90;;;;;;5034556;28;20257;-70
2023/02/10 09:30:42;;;;;;;24.13;14.10;;;1.80;99.90;;;;;;5039104;28;20990;-69
2023/02/10 09:33:08;;;;;;;24.07;13.20;;;1.90;99.90;;;;;;5030114;28;20230;-69
2023/02/10 09:35:34;;;;;;;28.70;13.97;;;1.90;99.90;;;;;;5028066;28;20234;-69
2023/02/10 09:37:59;;;;;;;28.33;14.50;;;1.90;99.90;;;;;;5016403;28;20226;-68
2023/02/10 09:40:31;;;;;;;24.10;13.60;;;1.90;99.90;;;;;;5042645;28;20218;-70
2023/02/10 09:43:18;;;;;;;30.97;15.40;;;1.90;99.90;;;;;;5040676;28;20281;-69
2023/02/10 09:45:47;;;;;;;31.27;14.20;;;2.00;99.90;;;;;;5044272;28;20867;-68
2023/02/10 09:48:34;;;;;;;32.20;16.47;;;2.00;99.90;;;;;;5047768;28;20462;-69
2023/02/10 09:51:18;;;;;;;28.43;15.50;;;2.00;99.90;;;;;;5048749;28;20461;-70
2023/02/10 09:53:44;;;;;;;29.50;15.00;;;2.00;99.90;;;;;;5042703;28;20459;-69
2023/02/10 09:56:17;;;;;;;31.20;13.83;;;2.10;99.90;;;;;;5043143;28;20453;-69
2023/02/10 09:58:53;;;;;;;22.27;13.33;;;2.10;99.90;;;;;;5047713;28;20328;-70
2023/02/10 10:01:28;;;;;;;28.60;13.27;;;2.20;99.90;;;;;;5027727;28;20471;-69
2023/02/10 10:04:08;;;;;;;27.07;14.87;;;2.20;99.90;;;;;;5046471;28;20465;-69
2023/02/10 10:07:38;;;;;;;26.17;13.00;;;2.20;99.90;;;;;;5039152;28;20511;-70
2023/02/10 10:10:14;;;;;;;20.27;10.57;;;2.30;99.90;;;;;;4924242;29;20560;-69
2023/02/10 10:12:41;;;;;;;28.87;13.23;;;2.30;99.90;;;;;;4953033;28;20554;-68
2023/02/10 10:15:15;;;;;;;23.20;13.37;;;2.40;99.90;;;;;;4986589;28;20453;-69
2023/02/10 10:18:05;;;;;;;26.30;12.30;;;2.40;99.90;;;;;;5049670;28;20482;-69
2023/02/10 10:20:55;;;;;;;22.87;12.40;;;2.50;99.90;;;;;;5052540;28;20448;-69
2023/02/10 10:23:26;;;;;;;27.80;12.10;;;2.50;99.90;;;;;;5040980;28;20531;-70
2023/02/10 10:26:13;;;;;;;20.60;11.33;;;2.60;99.90;;;;;;5059302;28;20461;-70
2023/02/10 10:28:53;;;;;;;22.63;11.80;;;2.60;99.90;;;;;;5031913;28;20441;-69
2023/02/10 10:31:36;;;;;;;24.43;11.33;;;2.80;99.90;;;;;;5043991;28;20457;-69
2023/02/10 10:34:13;;;;;;;26.03;12.40;;;2.90;99.90;;;;;;5039543;28;20970;-70
2023/02/10 10:36:47;;;;;;;22.87;12.20;;;2.90;99.90;;;;;;5047059;28;20475;-70
2023/02/10 10:39:15;;;;;;;25.70;11.87;;;2.90;99.90;;;;;;5031204;28;20512;-70
2023/02/10 10:41:43;;;;;;;25.60;13.63;;;3.00;99.90;;;;;;5044754;28;20564;-70
2023/02/10 10:44:14;;;;;;;29.43;13.20;;;3.00;99.90;;;;;;5041570;28;20462;-69
2023/02/10 10:46:43;;;;;;;22.90;13.00;;;3.00;99.90;;;;;;5047941;28;20453;-70
2023/02/10 10:49:09;;;;;;;24.60;12.53;;;3.10;99.90;;;;;;5048107;28;21042;-69
2023/02/10 10:51:37;;;;;;;24.70;11.73;;;3.20;99.90;;;;;;5048131;28;20528;-70
2023/02/10 10:54:08;;;;;;;22.20;12.87;;;3.30;99.90;;;;;;5028466;28;20459;-70
2023/02/10 10:56:48;;;;;;;23.90;13.10;;;3.30;99.90;;;;;;5031012;28;20461;-71
2023/02/10 10:59:28;;;;;;;22.60;13.30;;;3.30;99.90;;;;;;5034901;28;20480;-71
2023/02/10 11:01:54;;;;;;;18.60;12.20;;;3.40;99.90;;;;;;5048336;28;20465;-70
2023/02/10 11:04:23;;;;;;;25.07;13.70;;;3.50;99.90;;;;;;5046986;28;21120;-70
2023/02/10 11:06:56;;;;;;;26.93;13.87;;;3.60;99.90;;;;;;5042100;28;20230;-70
2023/02/10 11:09:34;;;;;;;22.40;13.30;;;3.80;99.90;;;;;;5038368;28;20471;-71
2023/02/10 11:12:16;;;;;;;23.47;14.27;;;3.90;99.90;;;;;;5028554;28;20836;-71
2023/02/10 11:14:47;;;;;;;24.20;12.50;;;4.00;99.90;;;;;;5042515;28;20473;-71
2023/02/10 11:17:40;;;;;;;27.63;13.53;;;4.20;99.90;;;;;;5022844;28;20472;-70
2023/02/10 11:20:12;;;;;;;23.90;13.37;;;4.40;99.90;;;;;;5046069;28;20453;-70
2023/02/10 11:22:39;;;;;;;26.00;13.60;;;4.50;99.90;;;;;;5047563;28;20477;-70
2023/02/10 11:25:23;;;;;;;30.40;14.73;;;4.60;99.90;;;;;;5045559;28;20476;-71
2023/02/10 11:27:56;;;;;;;24.77;13.50;;;4.70;99.90;;;;;;5046164;28;20455;-69
2023/02/10 11:30:38;;;;;;;23.37;13.47;;;4.90;99.90;;;;;;5032400;28;20528;-71
2023/02/10 11:33:16;;;;;;;23.37;14.20;;;5.10;99.90;;;;;;5029891;28;20469;-71
2023/02/10 11:35:48;;;;;;;24.57;12.97;;;5.20;99.90;;;;;;5032837;28;21038;-70
2023/02/10 11:38:20;;;;;;;20.40;11.93;;;5.20;99.90;;;;;;5040655;28;20449;-69
2023/02/10 11:40:53;;;;;;;22.73;12.40;;;5.30;99.90;;;;;;5046804;28;20819;-71
2023/02/10 11:43:22;;;;;;;23.93;13.80;;;5.40;99.90;;;;;;5046708;28;21016;-70
2023/02/10 11:45:57;;;;;;;24.40;13.80;;;5.40;99.90;;;;;;5034067;28;20473;-70
2023/02/10 11:48:27;;;;;;;22.03;12.23;;;5.40;99.90;;;;;;5045833;28;20476;-70
2023/02/10 11:51:02;;;;;;;26.47;12.93;;;5.60;99.90;;;;;;5040787;28;20497;-70
2023/02/10 11:53:32;;;;;;;29.40;15.30;;;5.70;99.90;;;;;;5020018;28;20453;-71
2023/02/10 11:56:13;;;;;;;20.43;12.70;;;5.70;99.90;;;;;;5044072;28;20478;-71
2023/02/10 11:59:04;;;;;;;23.27;13.67;;;5.80;99.90;;;;;;5045657;28;20461;-71
2023/02/10 12:01:40;;;;;;;24.10;13.83;;;5.80;99.90;;;;;;5039384;28;20469;-70
2023/02/10 12:04:11;;;;;;;20.37;12.20;;;6.00;99.90;;;;;;5026025;28;20985;-71
2023/02/10 12:06:45;;;;;;;24.40;12.50;;;6.10;99.90;;;;;;5043790;28;20454;-71
2023/02/10 12:09:29;;;;;;;33.87;14.60;;;6.00;99.90;;;;;;5018874;28;20442;-70
2023/02/10 12:12:32;;;;;;;29.43;14.67;;;5.90;99.90;;;;;;5038279;28;20957;-70
2023/02/10 12:15:26;;;;;;;25.20;15.07;;;5.70;99.90;;;;;;5036258;28;20475;-71
2023/02/10 12:17:58;;;;;;;30.70;15.37;;;5.70;99.90;;;;;;4987794;28;20462;-71
2023/02/10 12:20:51;;;;;;;39.67;17.87;;;5.70;99.90;;;;;;5043862;28;20450;-71
2023/02/10 12:23:38;;;;;;;34.37;18.30;;;5.80;99.90;;;;;;5036041;28;20478;-71
2023/02/10 12:26:33;;;;;;;27.47;14.23;;;6.10;99.90;;;;;;5031246;28;20543;-71
2023/02/10 12:29:34;;;;;;;23.70;13.37;;;6.20;99.90;;;;;;5047241;28;20457;-71
2023/02/10 12:32:26;;;;;;;27.13;13.00;;;6.40;99.90;;;;;;5034607;28;20460;-71
2023/02/10 12:35:11;;;;;;;23.60;13.40;;;6.60;99.90;;;;;;5056666;28;20474;-71
2023/02/10 12:37:50;;;;;;;22.57;12.47;;;6.70;99.90;;;;;;5037105;28;20454;-71
2023/02/10 12:40:35;;;;;;;21.83;13.27;;;6.60;99.90;;;;;;5046426;28;20523;-72
2023/02/10 12:43:12;;;;;;;27.13;13.33;;;6.70;99.90;;;;;;5060189;28;20473;-71
2023/02/10 12:45:59;;;;;;;21.63;13.07;;;6.60;99.90;;;;;;5038418;28;20489;-70
2023/02/10 12:48:25;;;;;;;23.43;12.43;;;6.50;99.90;;;;;;5041243;28;20493;-70
2023/02/10 12:51:02;;;;;;;22.03;12.40;;;6.70;99.90;;;;;;5044031;28;20509;-71
2023/02/10 12:53:38;;;;;;;22.20;12.80;;;7.20;99.90;;;;;;5042738;28;20249;-71
2023/02/10 12:56:17;;;;;;;21.87;12.67;;;7.40;99.90;;;;;;5028915;28;20461;-71